createdAt,value
2023-03-06T00:02:10.614Z,2.88
2023-03-06T00:07:11.830Z,2.78
2023-03-06T00:12:13.024Z,2.66
2023-03-06T00:17:14.224Z,2.62
2023-03-06T00:22:15.447Z,2.64
2023-03-06T00:27:16.566Z,2.62
2023-03-06T00:32:17.793Z,2.61
2023-03-06T00:37:18.969Z,2.58
2023-03-06T00:42:20.182Z,2.56
2023-03-06T00:47:21.320Z,2.55
2023-03-06T00:52:22.475Z,2.56
2023-03-06T00:57:23.791Z,2.51
2023-03-06T01:02:25.079Z,2.48
2023-03-06T01:07:27.730Z,2.49
2023-03-06T01:12:28.953Z,2.52
2023-03-06T01:17:30.167Z,2.54
2023-03-06T01:22:31.369Z,2.54
2023-03-06T01:27:32.616Z,2.51
2023-03-06T01:32:33.886Z,2.58
2023-03-06T01:37:35.133Z,2.61
2023-03-06T01:42:36.392Z,2.61
2023-03-06T01:47:37.569Z,2.62
2023-03-06T01:52:38.710Z,2.48
2023-03-06T01:57:39.920Z,2.37
2023-03-06T02:02:41.216Z,2.32
2023-03-06T02:07:42.366Z,2.23
2023-03-06T02:12:46.593Z,2.26
2023-03-06T02:17:47.769Z,2.26
2023-03-06T02:22:48.958Z,2.23
2023-03-06T02:27:50.200Z,2.28
2023-03-06T02:32:51.374Z,2.29
2023-03-06T02:37:52.744Z,2.31
2023-03-06T02:42:56.200Z,2.28
2023-03-06T02:47:57.414Z,2.25
2023-03-06T02:52:58.620Z,2.23
2023-03-06T02:57:59.828Z,2.23
2023-03-06T03:03:00.955Z,2.21
2023-03-06T03:08:02.180Z,2.20
2023-03-06T03:13:03.431Z,2.21
2023-03-06T03:18:04.652Z,2.23
2023-03-06T03:23:05.841Z,2.23
2023-03-06T03:28:07.006Z,2.22
2023-03-06T03:33:08.138Z,2.19
2023-03-06T03:38:09.357Z,2.21
2023-03-06T03:43:10.522Z,2.23
2023-03-06T03:48:11.658Z,2.25
2023-03-06T03:53:12.810Z,2.23
2023-03-06T03:58:14.051Z,2.24
2023-03-06T04:03:15.266Z,2.25
2023-03-06T04:08:16.506Z,2.25
2023-03-06T04:13:19.346Z,2.26
2023-03-06T04:18:20.781Z,2.30
2023-03-06T04:23:24.143Z,2.30
2023-03-06T04:28:25.432Z,2.34
2023-03-06T04:33:26.693Z,2.36
2023-03-06T04:38:27.921Z,2.41
2023-03-06T04:43:29.110Z,2.41
2023-03-06T04:48:30.277Z,2.43
2023-03-06T04:53:32.702Z,2.43
2023-03-06T04:58:33.970Z,2.46
2023-03-06T05:03:35.102Z,2.51
2023-03-06T05:08:36.259Z,2.53
2023-03-06T05:13:37.424Z,2.52
2023-03-06T05:18:38.889Z,2.42
2023-03-06T05:23:40.123Z,2.50
2023-03-06T05:28:41.388Z,2.48
2023-03-06T05:33:42.601Z,2.55
2023-03-06T05:38:43.845Z,2.51
2023-03-06T05:43:45.004Z,2.50
2023-03-06T05:48:46.934Z,2.47
2023-03-06T05:53:48.311Z,2.45
2023-03-06T05:58:50.473Z,2.42
2023-03-06T06:03:51.652Z,2.41
2023-03-06T06:08:52.865Z,2.39
2023-03-06T06:13:54.034Z,2.40
2023-03-06T06:18:55.226Z,2.42
2023-03-06T06:23:56.424Z,2.40
2023-03-06T06:29:00.063Z,2.41
2023-03-06T06:34:01.512Z,2.49
2023-03-06T06:39:03.494Z,2.51
2023-03-06T06:44:05.877Z,2.52
2023-03-06T06:49:08.445Z,2.56
2023-03-06T06:54:09.690Z,2.48
2023-03-06T06:59:16.412Z,2.44
2023-03-06T07:04:19.075Z,2.45
2023-03-06T07:09:20.359Z,2.50
2023-03-06T07:14:21.603Z,2.52
2023-03-06T07:19:22.799Z,2.50
2023-03-06T07:24:23.944Z,2.47
2023-03-06T07:29:25.173Z,2.45
2023-03-06T07:34:26.427Z,2.43
2023-03-06T07:39:29.937Z,2.52
2023-03-06T07:44:31.793Z,2.57
2023-03-06T07:49:32.975Z,2.62
2023-03-06T07:54:35.105Z,2.64
2023-03-06T07:59:36.256Z,2.67
2023-03-06T08:04:37.429Z,2.70
2023-03-06T08:09:38.667Z,2.80
2023-03-06T08:14:39.863Z,2.83
2023-03-06T08:19:41.065Z,2.80
2023-03-06T08:24:42.515Z,2.81
2023-03-06T08:29:43.769Z,2.84
2023-03-06T08:34:45.558Z,2.84
2023-03-06T08:39:46.692Z,2.82
2023-03-06T08:44:47.893Z,2.88
2023-03-06T08:49:49.148Z,2.95
2023-03-06T08:54:50.305Z,2.99
2023-03-06T08:59:51.469Z,3.04
2023-03-06T09:04:53.874Z,3.22
2023-03-06T09:09:55.081Z,3.27
2023-03-06T09:14:56.310Z,3.42
2023-03-06T09:19:57.514Z,3.40
2023-03-06T09:24:58.645Z,3.40
2023-03-06T09:29:59.849Z,3.48
2023-03-06T09:35:01.066Z,3.50
2023-03-06T09:40:02.260Z,3.50
2023-03-06T09:45:03.452Z,3.44
2023-03-06T09:50:04.963Z,3.54
2023-03-06T09:55:06.267Z,3.62
2023-03-06T10:00:08.746Z,3.69
2023-03-06T10:05:10.628Z,3.77
2023-03-06T10:10:11.822Z,3.78
2023-03-06T10:15:13.075Z,3.68
2023-03-06T10:20:14.292Z,3.70
2023-03-06T10:25:15.450Z,3.69
2023-03-06T10:30:16.578Z,3.72
2023-03-06T10:35:17.783Z,3.69
2023-03-06T10:40:18.962Z,3.66
2023-03-06T10:45:20.182Z,3.64
2023-03-06T10:50:21.453Z,3.59
2023-03-06T10:55:22.775Z,3.32
2023-03-06T11:00:23.974Z,3.22
2023-03-06T11:05:25.198Z,3.25
2023-03-06T11:10:26.333Z,3.23
2023-03-06T11:15:27.553Z,3.30
2023-03-06T11:20:31.772Z,3.27
2023-03-06T11:25:39.495Z,3.14
2023-03-06T11:30:40.672Z,3.09
2023-03-06T11:35:41.898Z,3.17
2023-03-06T11:40:43.080Z,3.20
2023-03-06T11:45:44.241Z,3.26
2023-03-06T11:50:45.366Z,3.26
2023-03-06T11:55:46.543Z,3.30
2023-03-06T12:00:47.718Z,3.43
2023-03-06T12:05:48.965Z,3.52
2023-03-06T12:10:51.880Z,3.51
2023-03-06T12:15:53.528Z,3.46
2023-03-06T12:20:54.719Z,3.54
2023-03-06T12:25:55.936Z,3.58
2023-03-06T12:30:57.145Z,3.62
2023-03-06T12:35:58.359Z,3.82
2023-03-06T12:40:59.595Z,3.89
2023-03-06T12:46:00.868Z,3.87
2023-03-06T12:51:02.137Z,3.86
2023-03-06T12:56:03.393Z,3.89
2023-03-06T13:01:07.711Z,3.87
2023-03-06T13:06:08.903Z,3.78
2023-03-06T13:11:11.203Z,3.74
2023-03-06T13:16:12.356Z,3.84
2023-03-06T13:21:13.557Z,3.86
2023-03-06T13:26:14.749Z,3.85
2023-03-06T13:31:26.860Z,3.79
2023-03-06T13:36:28.409Z,3.76
2023-03-06T13:41:29.654Z,3.71
2023-03-06T13:46:30.991Z,3.87
2023-03-06T13:51:32.192Z,3.91
2023-03-06T13:56:33.376Z,3.87
2023-03-06T14:01:34.588Z,3.83
2023-03-06T14:06:35.724Z,3.99
2023-03-06T14:11:37.253Z,4.26
2023-03-06T14:16:49.412Z,4.25
2023-03-06T14:21:51.328Z,4.32
2023-03-06T14:26:52.522Z,4.36
2023-03-06T14:31:53.733Z,4.16
2023-03-06T14:36:54.999Z,3.92
2023-03-06T14:41:56.176Z,3.68
2023-03-06T14:46:57.344Z,3.41
2023-03-06T14:52:00.451Z,3.30
2023-03-06T14:57:01.673Z,3.25
2023-03-06T15:02:03.349Z,3.28
2023-03-06T15:07:04.619Z,3.50
2023-03-06T15:12:07.910Z,3.81
2023-03-06T15:17:09.114Z,4.00
2023-03-06T15:22:10.325Z,3.95
2023-03-06T15:27:11.541Z,3.96
2023-03-06T15:32:12.821Z,3.91
2023-03-06T15:37:14.053Z,4.03
2023-03-06T15:42:15.311Z,4.07
2023-03-06T15:47:16.493Z,4.07
2023-03-06T15:52:17.733Z,4.24
2023-03-06T15:57:18.921Z,4.37
2023-03-06T16:02:20.111Z,4.26
2023-03-06T16:07:21.310Z,4.11
2023-03-06T16:12:22.785Z,3.97
2023-03-06T16:17:24.001Z,3.88
2023-03-06T16:22:25.213Z,3.85
2023-03-06T16:27:26.351Z,3.85
2023-03-06T16:32:28.818Z,3.84
2023-03-06T16:37:30.120Z,3.82
2023-03-06T16:42:31.282Z,3.74
2023-03-06T16:47:32.519Z,3.70
2023-03-06T16:52:33.688Z,3.67
2023-03-06T16:57:35.801Z,3.61
2023-03-06T17:02:37.123Z,3.55
2023-03-06T17:07:38.570Z,3.26
2023-03-06T17:12:39.730Z,3.41
2023-03-06T17:17:40.965Z,3.41
2023-03-06T17:22:42.135Z,3.39
2023-03-06T17:27:43.267Z,3.34
2023-03-06T17:32:44.439Z,3.28
2023-03-06T17:37:45.656Z,3.23
2023-03-06T17:42:46.841Z,3.15
2023-03-06T17:47:49.134Z,3.09
2023-03-06T17:52:50.415Z,3.04
2023-03-06T17:57:51.578Z,3.00
2023-03-06T18:02:53.260Z,2.97
2023-03-06T18:07:54.644Z,2.65
2023-03-06T18:12:56.586Z,2.93
2023-03-06T18:17:59.079Z,2.93
2023-03-06T18:23:03.424Z,2.92
2023-03-06T18:28:05.965Z,2.90
2023-03-06T18:33:07.133Z,2.91
2023-03-06T18:38:08.333Z,2.93
2023-03-06T18:43:09.534Z,2.93
2023-03-06T18:48:12.663Z,2.94
2023-03-06T18:53:13.876Z,2.93
2023-03-06T18:58:15.111Z,2.93
2023-03-06T19:03:16.294Z,2.93
2023-03-06T19:08:17.676Z,2.95
2023-03-06T19:13:18.833Z,2.98
2023-03-06T19:18:20.098Z,2.99
2023-03-06T19:23:21.317Z,3.07
2023-03-06T19:28:22.553Z,3.11
2023-03-06T19:33:23.685Z,3.09
2023-03-06T19:38:24.876Z,3.07
2023-03-06T19:43:26.077Z,3.07
2023-03-06T19:48:27.367Z,3.06
2023-03-06T19:53:28.572Z,3.06
2023-03-06T19:58:29.751Z,3.07
2023-03-06T20:03:31.016Z,3.09
2023-03-06T20:08:32.194Z,3.09
2023-03-06T20:13:35.386Z,3.12
2023-03-06T20:18:36.576Z,3.16
2023-03-06T20:23:38.073Z,3.14
2023-03-06T20:28:39.482Z,3.15
2023-03-06T20:33:40.679Z,3.15
2023-03-06T20:38:41.891Z,3.17
2023-03-06T20:43:43.043Z,3.20
2023-03-06T20:48:44.288Z,3.37
2023-03-06T20:53:45.460Z,3.38
2023-03-06T20:58:46.622Z,3.29
2023-03-06T21:03:47.841Z,3.28
2023-03-06T21:08:49.022Z,3.24
2023-03-06T21:13:50.649Z,3.19
2023-03-06T21:18:51.907Z,3.12
2023-03-06T21:23:53.127Z,3.01
2023-03-06T21:28:54.388Z,2.94
2023-03-06T21:33:55.820Z,2.83
2023-03-06T21:38:57.124Z,2.72
2023-03-06T21:43:58.398Z,2.62
2023-03-06T21:48:59.706Z,2.56
2023-03-06T21:54:01.981Z,2.48
2023-03-06T21:59:03.139Z,2.40
2023-03-06T22:04:04.702Z,2.32
2023-03-06T22:09:05.952Z,2.32
2023-03-06T22:14:07.084Z,2.33
2023-03-06T22:19:08.258Z,2.37
2023-03-06T22:24:09.499Z,2.39
2023-03-06T22:29:10.711Z,2.42
2023-03-06T22:34:11.899Z,2.42
2023-03-06T22:39:13.324Z,2.45
2023-03-06T22:44:14.486Z,2.47
2023-03-06T22:49:16.813Z,2.49
2023-03-06T22:54:17.969Z,2.49
2023-03-06T22:59:19.217Z,2.49
2023-03-06T23:04:20.488Z,2.51
2023-03-06T23:09:21.722Z,2.53
2023-03-06T23:14:22.974Z,2.55
2023-03-06T23:19:24.217Z,2.56
2023-03-06T23:24:25.401Z,2.63
2023-03-06T23:29:26.603Z,2.69
2023-03-06T23:34:27.789Z,2.72
2023-03-06T23:39:29.066Z,2.78
2023-03-06T23:44:30.265Z,2.83
2023-03-06T23:49:31.412Z,2.86
2023-03-06T23:54:34.163Z,2.88
2023-03-06T23:59:35.339Z,2.91
